Terminal Aerodrome Forecast
Issued by NWS Anchorage, AK

Home | Current Version | Previous Version | Text Only | Print | Product List | Glossary On
Versions: 1 2 3 4 5 6 7 8 9 10 11 12 13 14 15 16 17 18 19 20 21 22 23 24 25 26 27 28 29 30 31 32 33 34 35 36 37 38 39 40 41 42
000
FTAK31 PANC 281120
TAFANC
TAF
PANC 281120Z 2812/2918 17009KT P6SM VCSH FEW040 SCT060 BKN200
     FM282000 30009KT P6SM SCT070 SCT120 BKN200
     FM290300 VRB04KT P6SM FEW070 BKN120
     FM291200 16008KT P6SM SCT070 OVC120=

USA.gov is the U.S. government's official web portal to all federal, state and local government web resources and services.